EHBK/MST METAR and TAF weather

Enter ICAO airport designator
Station Type Date Time Source
EHBK METAR 2020/05/29 20:25 UTC NOAA

EHBK 292025Z AUTO 05006KT 9999 NCD 17/03 Q1023 NOSIG


Station Type Date Time Source
EHBK Decoded METAR 2020/05/29 20:25 UTC NOAA

Maastricht Airport Zuid Limburg, Netherlands (EHBK) 50-55N 005-47E 116M
May 29, 2020 - 04:25 PM EDT / 2020.05.29 2025 UTC
Wind: from the NE (050 degrees) at 7 MPH (6 KT):0
Visibility: greater than 7 mile(s):0
Temperature: 62 F (17 C)
Dew Point: 37 F (3 C)
Relative Humidity: 39%
Pressure (altimeter): 30.21 in. Hg (1023 hPa)
ob: EHBK 292025Z AUTO 05006KT 9999 NCD 17/03 Q1023 NOSIG
cycle: 20

Station Type Date Time Source
EHBK TAF 2020/05/29 18:27 UTC NOAA

TAF EHBK 291643Z 2918/3024 06009KT CAVOK

Example: see airport list